createdAt,value
2019-03-24T00:01:40.711Z,5.60
2019-03-24T00:04:00.716Z,5.40
2019-03-24T00:06:29.149Z,5.30
2019-03-24T00:08:57.605Z,5.40
2019-03-24T00:11:28.707Z,5.50
2019-03-24T00:13:57.404Z,5.50
2019-03-24T00:16:25.838Z,5.60
2019-03-24T00:18:54.292Z,5.50
2019-03-24T00:21:22.988Z,5.50
2019-03-24T00:23:51.521Z,5.50
2019-03-24T00:26:20.208Z,5.30
2019-03-24T00:28:48.955Z,5.40
2019-03-24T00:31:17.449Z,5.40
2019-03-24T00:33:46.162Z,5.40
2019-03-24T00:36:14.849Z,5.40
2019-03-24T00:38:43.318Z,5.40
2019-03-24T00:41:11.762Z,5.30
2019-03-24T00:43:40.250Z,5.20
2019-03-24T00:46:08.927Z,5.20
2019-03-24T00:48:37.371Z,5.20
2019-03-24T00:51:05.907Z,5.10
2019-03-24T00:53:34.509Z,5.10
2019-03-24T00:56:03.213Z,5.10
2019-03-24T00:58:31.651Z,5.10
2019-03-24T01:01:00.186Z,5.00
2019-03-24T01:03:28.879Z,4.90
2019-03-24T01:05:57.621Z,4.90
2019-03-24T01:08:26.060Z,4.90
2019-03-24T01:10:54.767Z,4.90
2019-03-24T01:13:23.278Z,4.90
2019-03-24T01:15:51.717Z,5.00
2019-03-24T01:18:20.179Z,5.00
2019-03-24T01:20:48.614Z,4.90
2019-03-24T01:23:17.076Z,4.50
2019-03-24T01:25:45.514Z,4.40
2019-03-24T01:28:13.948Z,4.50
2019-03-24T01:30:42.412Z,4.60
2019-03-24T01:33:11.101Z,4.70
2019-03-24T01:35:39.556Z,4.70
2019-03-24T01:38:07.989Z,4.70
2019-03-24T01:40:36.515Z,4.50
2019-03-24T01:43:05.296Z,4.10
2019-03-24T01:45:33.762Z,3.90
2019-03-24T01:48:02.201Z,4.10
2019-03-24T01:50:30.908Z,4.30
2019-03-24T01:52:59.352Z,4.40
2019-03-24T01:55:28.079Z,4.40
2019-03-24T01:57:56.764Z,4.40
2019-03-24T02:00:25.209Z,4.40
2019-03-24T02:02:53.661Z,4.30
2019-03-24T02:05:22.359Z,4.00
2019-03-24T02:07:50.803Z,4.10
2019-03-24T02:10:22.367Z,4.20
2019-03-24T02:12:50.821Z,4.30
2019-03-24T02:15:19.257Z,4.40
2019-03-24T02:17:48.007Z,4.40
2019-03-24T02:20:16.845Z,4.40
2019-03-24T02:22:45.538Z,4.40
2019-03-24T02:25:14.308Z,4.40
2019-03-24T02:27:43.009Z,4.40
2019-03-24T02:30:12.077Z,4.40
2019-03-24T02:32:40.517Z,4.40
2019-03-24T02:35:09.703Z,4.40
2019-03-24T02:37:38.196Z,4.50
2019-03-24T02:40:08.501Z,4.40
2019-03-24T02:42:37.006Z,4.40
2019-03-24T02:45:07.466Z,4.40
2019-03-24T02:47:36.224Z,4.50
2019-03-24T02:50:06.568Z,4.50
2019-03-24T02:52:35.344Z,4.40
2019-03-24T02:55:08.585Z,4.30
2019-03-24T02:57:37.298Z,4.30
2019-03-24T03:00:08.947Z,4.10
2019-03-24T03:02:37.796Z,4.00
2019-03-24T03:05:08.030Z,4.00
2019-03-24T03:07:36.757Z,4.00
2019-03-24T03:10:09.763Z,4.00
2019-03-24T03:12:38.298Z,3.90
2019-03-24T03:15:09.361Z,3.90
2019-03-24T03:17:37.821Z,3.90
2019-03-24T03:20:07.416Z,3.80
2019-03-24T03:22:36.174Z,3.50
2019-03-24T03:25:08.102Z,3.50
2019-03-24T03:27:36.598Z,3.60
2019-03-24T03:30:07.586Z,3.70
2019-03-24T03:32:36.185Z,3.80
2019-03-24T03:35:07.556Z,3.70
2019-03-24T03:37:36.289Z,3.40
2019-03-24T03:40:06.947Z,3.40
2019-03-24T03:42:35.685Z,3.50
2019-03-24T03:45:05.471Z,3.60
2019-03-24T03:47:34.238Z,3.70
2019-03-24T03:50:02.970Z,3.70
2019-03-24T03:52:31.488Z,3.70
2019-03-24T03:54:59.966Z,3.70
2019-03-24T03:57:28.442Z,3.70
2019-03-24T03:59:57.242Z,3.50
2019-03-24T04:02:26.250Z,3.40
2019-03-24T04:04:54.681Z,3.40
2019-03-24T04:07:23.464Z,3.50
2019-03-24T04:09:51.910Z,3.50
2019-03-24T04:12:20.609Z,3.50
2019-03-24T04:14:49.311Z,3.50
2019-03-24T04:17:17.777Z,3.60
2019-03-24T04:19:46.290Z,3.60
2019-03-24T04:22:14.754Z,3.60
2019-03-24T04:24:43.197Z,3.60
2019-03-24T04:27:11.653Z,3.60
2019-03-24T04:29:40.342Z,3.50
2019-03-24T04:32:08.807Z,3.40
2019-03-24T04:34:37.288Z,3.50
2019-03-24T04:37:05.841Z,3.50
2019-03-24T04:39:34.539Z,3.50
2019-03-24T04:42:02.990Z,3.50
2019-03-24T04:44:31.698Z,3.40
2019-03-24T04:47:00.147Z,3.10
2019-03-24T04:49:28.667Z,3.10
2019-03-24T04:51:57.373Z,3.20
2019-03-24T04:54:26.118Z,3.30
2019-03-24T04:56:54.552Z,3.40
2019-03-24T04:59:23.278Z,3.30
2019-03-24T05:01:51.978Z,3.20
2019-03-24T05:04:20.698Z,3.30
2019-03-24T05:06:49.460Z,3.20
2019-03-24T05:09:18.356Z,3.20
2019-03-24T05:11:46.806Z,3.20
2019-03-24T05:14:15.506Z,3.20
2019-03-24T05:16:44.225Z,3.20
2019-03-24T05:19:12.932Z,3.20
2019-03-24T05:21:41.397Z,3.20
2019-03-24T05:24:09.849Z,3.30
2019-03-24T05:26:38.305Z,3.30
2019-03-24T05:29:06.736Z,3.30
2019-03-24T05:31:35.457Z,3.40
2019-03-24T05:34:03.908Z,3.40
2019-03-24T05:36:32.639Z,3.10
2019-03-24T05:39:01.072Z,2.80
2019-03-24T05:41:29.540Z,2.80
2019-03-24T05:43:57.982Z,2.90
2019-03-24T05:46:26.713Z,3.10
2019-03-24T05:48:55.231Z,3.20
2019-03-24T05:51:23.670Z,3.30
2019-03-24T05:53:52.398Z,3.30
2019-03-24T05:56:21.094Z,3.30
2019-03-24T05:58:49.829Z,3.30
2019-03-24T06:01:18.285Z,3.30
2019-03-24T06:03:47.004Z,3.20
2019-03-24T06:06:15.454Z,3.30
2019-03-24T06:08:43.970Z,3.30
2019-03-24T06:11:12.408Z,3.40
2019-03-24T06:13:41.140Z,3.50
2019-03-24T06:16:09.578Z,3.60
2019-03-24T06:18:38.272Z,3.50
2019-03-24T06:21:07.065Z,3.30
2019-03-24T06:23:35.502Z,3.30
2019-03-24T06:26:04.043Z,3.20
2019-03-24T06:28:32.543Z,3.40
2019-03-24T06:31:01.817Z,3.60
2019-03-24T06:33:30.544Z,3.70
2019-03-24T06:35:59.015Z,3.90
2019-03-24T06:38:27.466Z,4.10
2019-03-24T06:40:55.936Z,4.20
2019-03-24T06:43:24.437Z,4.40
2019-03-24T06:45:52.873Z,4.60
2019-03-24T06:48:21.606Z,4.70
2019-03-24T06:50:50.326Z,4.70
2019-03-24T06:53:18.780Z,4.50
2019-03-24T06:55:47.215Z,4.40
2019-03-24T06:58:15.675Z,4.60
2019-03-24T07:00:44.381Z,4.90
2019-03-24T07:03:12.898Z,4.80
2019-03-24T07:05:41.616Z,5.00
2019-03-24T07:08:10.366Z,5.20
2019-03-24T07:10:38.817Z,5.20
2019-03-24T07:13:07.255Z,5.00
2019-03-24T07:15:35.980Z,5.10
2019-03-24T07:18:08.722Z,5.10
2019-03-24T07:20:34.982Z,5.20
2019-03-24T07:23:03.413Z,5.30
2019-03-24T07:25:32.117Z,5.40
2019-03-24T07:28:00.574Z,5.60
2019-03-24T07:30:29.053Z,5.60
2019-03-24T07:32:57.561Z,5.70
2019-03-24T07:35:26.293Z,5.90
2019-03-24T07:37:55.003Z,6.10
2019-03-24T07:40:23.768Z,6.30
2019-03-24T07:42:52.492Z,6.20
2019-03-24T07:45:20.929Z,6.30
2019-03-24T07:47:49.701Z,6.50
2019-03-24T07:50:18.393Z,6.60
2019-03-24T07:52:46.868Z,6.70
2019-03-24T07:55:15.305Z,7.00
2019-03-24T07:57:44.036Z,7.30
2019-03-24T08:00:12.924Z,7.50
2019-03-24T08:02:51.209Z,7.60
2019-03-24T08:05:19.954Z,7.80
2019-03-24T08:07:48.479Z,7.90
2019-03-24T08:10:16.942Z,7.90
2019-03-24T08:12:45.554Z,8.10
2019-03-24T08:15:14.162Z,8.30
2019-03-24T08:17:42.605Z,8.40
2019-03-24T08:20:12.408Z,8.60
2019-03-24T08:22:40.977Z,8.80
2019-03-24T08:25:10.020Z,9.10
2019-03-24T08:27:38.513Z,9.30
2019-03-24T08:30:09.104Z,9.50
2019-03-24T08:32:37.564Z,9.60
2019-03-24T08:35:06.950Z,9.90
2019-03-24T08:37:35.744Z,10.10
2019-03-24T08:40:06.873Z,10.60
2019-03-24T08:42:35.675Z,11.00
2019-03-24T08:45:04.855Z,11.10
2019-03-24T08:47:33.322Z,11.30
2019-03-24T08:50:01.789Z,11.50
2019-03-24T08:52:30.527Z,11.70
2019-03-24T08:54:59.985Z,11.80
2019-03-24T08:57:28.598Z,12.00
2019-03-24T08:59:57.683Z,12.20
2019-03-24T09:02:26.124Z,12.50
2019-03-24T09:04:54.599Z,12.60
2019-03-24T09:07:23.044Z,12.90
2019-03-24T09:09:51.782Z,13.90
2019-03-24T09:12:20.491Z,15.30
2019-03-24T09:14:49.316Z,16.50
2019-03-24T09:17:17.820Z,19.00
2019-03-24T09:19:46.276Z,21.00
2019-03-24T09:22:14.723Z,22.10
2019-03-24T09:24:43.446Z,22.40
2019-03-24T09:27:11.874Z,23.30
2019-03-24T09:29:40.349Z,24.40
2019-03-24T09:32:08.792Z,25.00
2019-03-24T09:34:37.228Z,25.50
2019-03-24T09:37:05.703Z,25.40
2019-03-24T09:39:34.152Z,24.90
2019-03-24T09:42:02.630Z,24.10
2019-03-24T09:44:31.066Z,23.10
2019-03-24T09:46:59.565Z,22.50
2019-03-24T09:49:28.016Z,22.00
2019-03-24T09:51:56.473Z,22.00
2019-03-24T09:54:24.958Z,21.90
2019-03-24T09:56:53.744Z,20.70
2019-03-24T09:59:22.461Z,19.90
2019-03-24T10:01:50.935Z,19.70
2019-03-24T10:04:19.636Z,19.70
2019-03-24T10:06:48.086Z,19.20
2019-03-24T10:12:45.541Z,18.70
2019-03-24T10:15:14.310Z,19.10
2019-03-24T10:17:42.855Z,18.90
2019-03-24T10:20:11.441Z,18.40
2019-03-24T10:22:39.983Z,18.40
2019-03-24T10:25:08.524Z,18.50
2019-03-24T10:27:36.969Z,18.60
2019-03-24T10:30:08.166Z,18.50
2019-03-24T10:32:36.880Z,18.90
2019-03-24T10:35:06.950Z,18.80
2019-03-24T10:37:35.638Z,18.60
2019-03-24T10:40:05.449Z,18.80
2019-03-24T10:42:34.178Z,19.30
2019-03-24T10:45:02.702Z,20.00
2019-03-24T10:47:31.147Z,20.50
2019-03-24T10:49:59.872Z,20.30
2019-03-24T10:52:28.654Z,19.90
2019-03-24T10:54:57.373Z,19.60
2019-03-24T10:57:25.901Z,19.20
2019-03-24T10:59:54.382Z,18.70
2019-03-24T11:02:23.110Z,18.50
2019-03-24T11:04:51.556Z,18.70
2019-03-24T11:07:20.450Z,18.90
2019-03-24T11:09:48.888Z,18.80
2019-03-24T11:12:17.369Z,19.20
2019-03-24T11:14:46.079Z,19.80
2019-03-24T11:17:14.790Z,20.20
2019-03-24T11:19:43.484Z,19.30
2019-03-24T11:22:11.960Z,19.00
2019-03-24T11:24:40.403Z,18.70
2019-03-24T11:27:08.924Z,18.60
2019-03-24T11:29:37.657Z,18.80
2019-03-24T11:32:06.099Z,19.20
2019-03-24T11:34:34.827Z,20.00
2019-03-24T11:37:03.262Z,20.50
2019-03-24T11:39:31.725Z,20.60
2019-03-24T11:42:00.437Z,20.60
2019-03-24T11:44:28.904Z,20.10
2019-03-24T11:46:57.637Z,19.80
2019-03-24T11:49:26.135Z,19.50
2019-03-24T11:51:54.578Z,19.40
2019-03-24T11:54:23.264Z,19.30
2019-03-24T11:56:51.724Z,19.20
2019-03-24T11:59:20.174Z,19.10
2019-03-24T12:01:48.721Z,19.40
2019-03-24T12:04:17.233Z,19.60
2019-03-24T12:06:45.966Z,19.80
2019-03-24T12:09:14.665Z,19.90
2019-03-24T12:11:43.122Z,20.30
2019-03-24T12:14:11.564Z,20.70
2019-03-24T12:16:40.303Z,21.80
2019-03-24T12:19:09.010Z,21.60
2019-03-24T12:21:37.739Z,21.20
2019-03-24T12:24:06.184Z,21.00
2019-03-24T12:26:34.628Z,20.70
2019-03-24T12:29:03.110Z,20.50
2019-03-24T12:31:31.810Z,20.30
2019-03-24T12:34:00.273Z,20.40
2019-03-24T12:36:28.729Z,20.40
2019-03-24T12:38:57.447Z,20.10
2019-03-24T12:41:26.133Z,20.00
2019-03-24T12:43:57.562Z,20.30
2019-03-24T12:46:26.019Z,21.10
2019-03-24T12:48:54.760Z,22.20
2019-03-24T12:51:29.378Z,23.10
2019-03-24T12:53:57.816Z,23.00
2019-03-24T12:56:26.548Z,22.80
2019-03-24T12:58:54.992Z,22.90
2019-03-24T13:01:23.436Z,22.80
2019-03-24T13:03:51.886Z,23.00
2019-03-24T13:06:21.656Z,22.90
2019-03-24T13:08:50.120Z,22.70
2019-03-24T13:11:18.899Z,22.10
2019-03-24T13:13:47.349Z,22.10
2019-03-24T13:16:15.817Z,21.90
2019-03-24T13:18:44.534Z,22.00
2019-03-24T13:21:13.296Z,21.70
2019-03-24T13:23:41.762Z,21.30
2019-03-24T13:26:10.474Z,20.90
2019-03-24T13:28:38.946Z,21.00
2019-03-24T13:31:07.388Z,21.20
2019-03-24T13:33:35.840Z,21.10
2019-03-24T13:36:06.232Z,21.40
2019-03-24T13:38:37.440Z,22.10
2019-03-24T13:41:06.152Z,23.00
2019-03-24T13:43:34.609Z,23.50
2019-03-24T13:46:03.119Z,23.40
2019-03-24T13:48:31.568Z,23.40
2019-03-24T13:51:00.276Z,23.40
2019-03-24T13:53:28.719Z,23.70
2019-03-24T13:55:57.176Z,24.20
2019-03-24T13:58:25.883Z,25.20
2019-03-24T14:00:54.337Z,26.40
2019-03-24T14:03:22.781Z,26.20
2019-03-24T14:05:51.484Z,26.40
2019-03-24T14:08:19.920Z,27.00
2019-03-24T14:10:48.386Z,25.90
2019-03-24T14:13:17.086Z,27.00
2019-03-24T14:15:45.540Z,27.80
2019-03-24T14:18:14.250Z,28.40
2019-03-24T14:20:43.977Z,29.00
2019-03-24T14:23:12.742Z,30.00
2019-03-24T14:25:41.452Z,30.90
2019-03-24T14:28:10.758Z,31.60
2019-03-24T14:30:44.437Z,31.80
2019-03-24T14:33:12.970Z,31.10
2019-03-24T14:35:41.857Z,28.50
2019-03-24T14:38:10.316Z,28.40
2019-03-24T14:40:38.775Z,28.00
2019-03-24T14:43:07.294Z,26.50
2019-03-24T14:45:35.728Z,24.90
2019-03-24T14:48:04.638Z,23.90
2019-03-24T14:50:33.333Z,23.10
2019-03-24T14:53:02.066Z,22.80
2019-03-24T14:55:35.108Z,21.80
2019-03-24T14:58:03.884Z,21.60
2019-03-24T15:00:42.996Z,21.50
2019-03-24T15:03:11.888Z,21.50
2019-03-24T15:05:40.726Z,21.30
2019-03-24T15:08:10.102Z,21.10
2019-03-24T15:10:38.808Z,20.80
2019-03-24T15:13:07.383Z,20.40
2019-03-24T15:15:36.098Z,19.90
2019-03-24T15:18:04.608Z,19.50
2019-03-24T15:20:33.126Z,19.30
2019-03-24T15:23:05.115Z,19.10
2019-03-24T15:25:33.581Z,19.00
2019-03-24T15:28:02.296Z,18.90
2019-03-24T15:30:30.751Z,19.00
2019-03-24T15:32:59.190Z,19.60
2019-03-24T15:35:27.658Z,20.30
2019-03-24T15:38:06.894Z,21.10
2019-03-24T15:40:26.542Z,22.30
2019-03-24T15:42:55.236Z,23.50
2019-03-24T15:45:24.051Z,24.40
2019-03-24T15:47:55.430Z,24.60
2019-03-24T15:50:24.129Z,24.60
2019-03-24T15:52:52.591Z,24.60
2019-03-24T15:55:21.307Z,24.20
2019-03-24T15:57:49.766Z,22.70
2019-03-24T16:00:21.541Z,21.30
2019-03-24T16:02:50.097Z,20.20
2019-03-24T16:05:18.537Z,19.40
2019-03-24T16:07:47.331Z,18.80
2019-03-24T16:10:16.657Z,18.50
2019-03-24T16:12:45.384Z,18.30
2019-03-24T16:15:13.974Z,18.10
2019-03-24T16:17:42.426Z,18.00
2019-03-24T16:20:11.136Z,17.80
2019-03-24T16:22:39.843Z,17.80
2019-03-24T16:25:08.708Z,17.70
2019-03-24T16:27:37.166Z,17.70
2019-03-24T16:30:08.139Z,17.90
2019-03-24T16:32:36.658Z,18.10
2019-03-24T16:35:06.531Z,18.20
2019-03-24T16:37:35.132Z,18.10
2019-03-24T16:40:05.461Z,17.80
2019-03-24T16:42:34.152Z,17.40
2019-03-24T16:45:02.596Z,17.20
2019-03-24T16:47:31.305Z,16.80
2019-03-24T16:50:02.496Z,16.60
2019-03-24T16:52:31.294Z,16.30
2019-03-24T16:55:00.006Z,16.10
2019-03-24T16:57:28.475Z,15.90
2019-03-24T16:59:56.908Z,15.70
2019-03-24T17:02:25.369Z,15.50
2019-03-24T17:04:53.823Z,15.30
2019-03-24T17:07:22.520Z,15.20
2019-03-24T17:09:51.216Z,15.10
2019-03-24T17:12:19.709Z,15.00
2019-03-24T17:14:48.423Z,14.80
2019-03-24T17:17:16.933Z,14.60
2019-03-24T17:19:45.704Z,14.50
2019-03-24T17:22:14.213Z,14.40
2019-03-24T17:24:42.814Z,14.30
2019-03-24T17:27:11.515Z,14.10
2019-03-24T17:29:40.126Z,14.00
2019-03-24T17:32:08.583Z,13.90
2019-03-24T17:34:37.366Z,13.80
2019-03-24T17:37:06.171Z,13.70
2019-03-24T17:39:34.899Z,13.70
2019-03-24T17:42:05.525Z,13.60
2019-03-24T17:44:34.052Z,13.50
2019-03-24T17:47:02.507Z,13.40
2019-03-24T17:49:30.977Z,13.30
2019-03-24T17:52:00.974Z,13.20
2019-03-24T17:54:29.770Z,13.10
2019-03-24T17:56:58.782Z,12.90
2019-03-24T17:59:27.701Z,12.80
2019-03-24T18:01:56.234Z,12.70
2019-03-24T18:04:25.053Z,12.60
2019-03-24T18:06:53.887Z,12.50
2019-03-24T18:09:22.326Z,12.50
2019-03-24T18:11:50.781Z,12.50
2019-03-24T18:14:19.226Z,12.30
2019-03-24T18:16:47.684Z,12.30
2019-03-24T18:19:16.593Z,12.20
2019-03-24T18:21:48.813Z,12.00
2019-03-24T18:24:18.156Z,11.90
2019-03-24T18:26:46.905Z,11.80
2019-03-24T18:29:15.619Z,11.70
2019-03-24T18:31:44.315Z,11.70
2019-03-24T18:34:19.030Z,11.70
2019-03-24T18:36:47.489Z,11.60
2019-03-24T18:39:16.202Z,11.60
2019-03-24T18:41:44.644Z,11.60
2019-03-24T18:44:13.399Z,11.50
2019-03-24T18:46:41.849Z,11.50
2019-03-24T18:49:10.626Z,11.40
2019-03-24T18:51:44.798Z,11.30
2019-03-24T18:54:13.245Z,11.20
2019-03-24T18:56:41.708Z,11.20
2019-03-24T18:59:10.164Z,11.20
2019-03-24T19:01:38.640Z,11.20
2019-03-24T19:04:07.080Z,11.10
2019-03-24T19:06:35.793Z,11.10
2019-03-24T19:09:07.245Z,11.00
2019-03-24T19:11:45.039Z,11.00
2019-03-24T19:14:14.577Z,10.90
2019-03-24T19:16:43.016Z,10.80
2019-03-24T19:19:11.723Z,10.70
2019-03-24T19:21:40.426Z,10.50
2019-03-24T19:24:09.141Z,10.40
2019-03-24T19:26:37.849Z,10.30
2019-03-24T19:29:06.321Z,10.20
2019-03-24T19:31:35.196Z,10.20
2019-03-24T19:34:03.652Z,10.10
2019-03-24T19:36:34.436Z,10.10
2019-03-24T19:39:03.144Z,10.00
2019-03-24T19:41:32.044Z,9.90
2019-03-24T19:44:00.778Z,9.70
2019-03-24T19:46:29.558Z,9.60
2019-03-24T19:48:58.269Z,9.40
2019-03-24T19:51:26.995Z,9.40
2019-03-24T19:53:55.453Z,9.20
2019-03-24T19:56:24.150Z,9.10
2019-03-24T19:58:52.589Z,9.10
2019-03-24T20:01:26.830Z,8.90
2019-03-24T20:03:55.277Z,8.90
2019-03-24T20:06:23.735Z,8.80
2019-03-24T20:08:52.174Z,8.70
2019-03-24T20:11:20.624Z,8.50
2019-03-24T20:13:49.060Z,8.50
2019-03-24T20:16:20.968Z,8.60
2019-03-24T20:18:49.395Z,8.80
2019-03-24T20:21:17.855Z,8.80
2019-03-24T20:23:46.295Z,8.80
2019-03-24T20:26:14.758Z,8.80
2019-03-24T20:28:43.252Z,8.80
2019-03-24T20:31:11.693Z,8.80
2019-03-24T20:33:40.153Z,8.80
2019-03-24T20:36:08.841Z,8.80
2019-03-24T20:38:37.560Z,8.80
2019-03-24T20:41:06.001Z,8.80
2019-03-24T20:43:49.807Z,8.70
2019-03-24T20:46:18.236Z,8.70
2019-03-24T20:48:46.685Z,8.70
2019-03-24T20:51:15.125Z,8.50
2019-03-24T20:53:43.582Z,8.40
2019-03-24T20:56:12.291Z,8.30
2019-03-24T20:58:42.392Z,8.30
2019-03-24T21:01:11.097Z,8.30
2019-03-24T21:03:39.562Z,8.20
2019-03-24T21:06:08.265Z,7.90
2019-03-24T21:08:36.991Z,7.80
2019-03-24T21:11:05.420Z,7.80
2019-03-24T21:13:33.895Z,7.80
2019-03-24T21:16:02.645Z,7.90
2019-03-24T21:18:31.080Z,7.90
2019-03-24T21:20:59.542Z,7.90
2019-03-24T21:23:29.721Z,7.90
2019-03-24T21:25:59.469Z,7.90
2019-03-24T21:28:28.169Z,7.90
2019-03-24T21:30:56.629Z,7.60
2019-03-24T21:33:25.332Z,7.50
2019-03-24T21:35:53.787Z,7.50
2019-03-24T21:38:22.482Z,7.50
2019-03-24T21:40:50.972Z,7.50
2019-03-24T21:43:19.404Z,7.40
2019-03-24T21:45:47.859Z,7.40
2019-03-24T21:48:16.560Z,7.40
2019-03-24T21:50:44.987Z,7.40
2019-03-24T21:53:13.724Z,7.40
2019-03-24T21:55:42.419Z,7.40
2019-03-24T21:58:10.872Z,7.40
2019-03-24T22:00:39.318Z,7.30
2019-03-24T22:03:08.179Z,7.30
2019-03-24T22:05:37.160Z,7.30
2019-03-24T22:08:07.774Z,7.00
2019-03-24T22:10:36.420Z,6.90
2019-03-24T22:13:05.317Z,6.90
2019-03-24T22:15:33.745Z,6.90
2019-03-24T22:18:02.538Z,6.70
2019-03-24T22:20:30.977Z,6.80
2019-03-24T22:23:08.679Z,6.80
2019-03-24T22:25:37.490Z,6.90
2019-03-24T22:28:06.036Z,6.90
2019-03-24T22:30:34.758Z,6.90
2019-03-24T22:33:03.655Z,6.90
2019-03-24T22:35:32.388Z,6.80
2019-03-24T22:38:00.842Z,6.70
2019-03-24T22:40:29.583Z,6.70
2019-03-24T22:42:58.266Z,6.80
2019-03-24T22:45:26.985Z,6.80
2019-03-24T22:47:55.435Z,6.80
2019-03-24T22:50:23.885Z,6.70
2019-03-24T22:52:52.585Z,6.60
2019-03-24T22:55:21.296Z,6.50
2019-03-24T22:57:50.002Z,6.50
2019-03-24T23:00:21.615Z,6.40
2019-03-24T23:02:50.048Z,6.30
2019-03-24T23:05:18.523Z,6.30
2019-03-24T23:07:46.963Z,6.30
2019-03-24T23:10:30.739Z,6.20
2019-03-24T23:12:59.424Z,6.00
2019-03-24T23:15:28.146Z,6.00
2019-03-24T23:17:56.947Z,6.00
2019-03-24T23:20:25.683Z,6.00
2019-03-24T23:22:54.138Z,5.90
2019-03-24T23:25:28.556Z,6.00
2019-03-24T23:27:57.238Z,6.00
2019-03-24T23:30:25.706Z,6.10
2019-03-24T23:32:54.153Z,6.30
2019-03-24T23:35:23.214Z,6.50
2019-03-24T23:37:51.641Z,6.70
2019-03-24T23:40:20.118Z,6.80
2019-03-24T23:42:48.621Z,7.00
2019-03-24T23:45:17.053Z,7.10
2019-03-24T23:47:45.522Z,7.10
2019-03-24T23:50:14.089Z,7.20
2019-03-24T23:52:42.548Z,7.30
2019-03-24T23:55:11.113Z,7.30
2019-03-24T23:57:39.835Z,7.30
